Windham, New Hampshire
Current Conditions -  °F | °C
As of 5:54 AM on Saturday 25 Oct 2014 (Local Time) from KLWM Reporting Station
Clear Clear  
Wind Chill: 42°   Ceiling: Unl
Heat Index: 45°   Visibility: 10mi
Dew Point: 39°   Wind: 6mph
Humidity: 80%   Direction: 230°SW
Pressure: 29.75"   Gusts: NA
Location:  42.8°N, 71.3°W
Report Text: KLWM 250954Z AUTO 23005KT 10SM CLR 07/04 A2975 RMK AO2 SLP076 T00720039
Loading
Personal Weather Stations






























Interactive Weather Map
Tropical Storm Tracking
New forecast layout! Learn more

10-Day Weather Forecast

Advertisements
Track Severe Weather on mobile